Time;durP1;ratioP1;P1;durP2;ratioP2;P2;SDS_P1;SDS_P2;PMS_P1;PMS_P2;Temp;Humidity;BMP_temperature;BMP_pressure;BME280_temperature;BME280_humidity;BME280_pressure;Samples;Min_cycle;Max_cycle;Signal;HPM_P1;HPM_P2
2023/02/15 00:00:00;;;;;;;22.63;13.10;;;;;;;3.63;60.58;100706.09;6196123;23;20039;-88
2023/02/15 00:02:26;;;;;;;19.67;13.00;;;;;;;3.62;61.01;100717.75;6196687;23;20049;-88
2023/02/15 00:04:51;;;;;;;25.10;14.13;;;;;;;3.53;61.46;100708.25;6171238;23;20004;-88
2023/02/15 00:07:17;;;;;;;25.25;14.50;;;;;;;3.55;61.42;100716.03;6195903;23;20000;-88
2023/02/15 00:09:44;;;;;;;22.05;11.43;;;;;;;3.38;61.05;100688.81;6197065;23;20414;-90
2023/02/15 00:12:10;;;;;;;24.33;12.50;;;;;;;3.52;61.11;100706.59;6196765;23;20505;-89
2023/02/15 00:14:35;;;;;;;20.40;12.98;;;;;;;3.41;61.03;100699.94;6171917;23;20003;-89
2023/02/15 00:17:01;;;;;;;21.67;11.50;;;;;;;3.33;61.72;100696.56;6195439;23;19999;-88
2023/02/15 00:19:26;;;;;;;22.95;12.52;;;;;;;3.19;61.76;100703.56;6196159;23;20004;-89
2023/02/15 00:21:52;;;;;;;24.45;12.48;;;;;;;3.28;61.87;100715.75;6196645;23;19996;-89
2023/02/15 00:24:18;;;;;;;22.33;11.85;;;;;;;3.18;62.09;100702.75;6171258;23;20008;-89
2023/02/15 00:26:43;;;;;;;19.40;11.60;;;;;;;3.22;61.66;100706.69;6195880;23;19999;-89
2023/02/15 00:29:09;;;;;;;18.50;10.38;;;;;;;3.34;61.95;100716.84;6196400;23;20003;-88
2023/02/15 00:31:35;;;;;;;18.60;10.45;;;;;;;3.36;61.14;100723.66;6221032;23;20083;-89
2023/02/15 00:34:03;;;;;;;20.83;11.05;;;;;;;3.27;61.34;100718.59;6171161;23;20000;-89
2023/02/15 00:36:29;;;;;;;21.45;11.55;;;;;;;3.21;61.72;100717.50;6171143;23;20004;-89
2023/02/15 00:38:56;;;;;;;22.63;12.68;;;;;;;3.11;61.80;100703.66;6221349;23;20027;-88
2023/02/15 00:41:21;;;;;;;17.08;10.35;;;;;;;3.09;62.03;100705.69;6221008;23;20011;-89
2023/02/15 00:43:47;;;;;;;22.30;11.25;;;;;;;3.06;61.53;100698.91;6170730;23;20386;-88
2023/02/15 00:46:12;;;;;;;20.95;10.55;;;;;;;3.03;61.77;100705.44;6171477;23;20004;-89
2023/02/15 00:48:38;;;;;;;18.35;10.30;;;;;;;3.17;61.77;100705.59;6196045;23;19996;-89
2023/02/15 00:51:03;;;;;;;22.83;10.55;;;;;;;3.24;61.36;100711.81;6196204;23;20000;-89
2023/02/15 00:53:29;;;;;;;17.77;10.90;;;;;;;3.17;60.93;100694.94;6190464;23;20043;-89
2023/02/15 00:55:54;;;;;;;19.25;10.85;;;;;;;3.21;61.06;100712.19;6190165;23;20554;-89
2023/02/15 00:58:20;;;;;;;18.70;10.60;;;;;;;3.28;61.43;100721.09;6166638;23;20023;-89
2023/02/15 01:00:46;;;;;;;18.38;10.73;;;;;;;3.15;61.93;100715.59;6165748;23;20004;-88
2023/02/15 01:03:11;;;;;;;18.48;11.05;;;;;;;3.20;61.00;100699.91;6165107;23;20028;-88
2023/02/15 01:05:37;;;;;;;18.23;10.32;;;;;;;3.23;61.41;100710.97;6165890;23;20000;-89
2023/02/15 01:08:02;;;;;;;19.70;10.30;;;;;;;3.19;61.22;100692.91;6166071;23;20001;-89
2023/02/15 01:10:28;;;;;;;19.75;10.85;;;;;;;3.23;61.35;100700.34;6165618;23;20024;-88
2023/02/15 01:12:54;;;;;;;16.95;9.60;;;;;;;3.19;61.00;100692.91;6165272;23;19996;-89
2023/02/15 01:15:19;;;;;;;17.38;10.05;;;;;;;3.21;60.78;100685.56;6166090;23;20032;-89
2023/02/15 01:17:50;;;;;;;20.92;11.32;;;;;;;3.02;61.44;100695.78;6191139;23;20001;-88
2023/02/15 01:20:17;;;;;;;21.67;11.43;;;;;;;3.07;61.41;100687.25;6167834;23;20004;-88
2023/02/15 01:22:42;;;;;;;18.58;10.98;;;;;;;3.04;61.54;100691.09;6189956;23;20454;-88
2023/02/15 01:25:08;;;;;;;19.13;10.90;;;;;;;3.07;60.96;100679.25;6166217;23;19997;-88
2023/02/15 01:27:33;;;;;;;18.52;11.77;;;;;;;3.03;61.27;100680.69;6191028;23;20327;-87
2023/02/15 01:29:59;;;;;;;18.42;10.52;;;;;;;3.01;61.54;100685.38;6166022;23;20007;-87
2023/02/15 01:32:24;;;;;;;19.45;10.20;;;;;;;3.08;61.76;100690.75;6190380;23;20055;-87
2023/02/15 01:34:50;;;;;;;19.08;10.10;;;;;;;2.96;61.45;100671.78;6190709;23;20027;-87
2023/02/15 01:37:15;;;;;;;20.15;11.02;;;;;;;2.96;61.38;100672.59;6165526;23;20000;-88
2023/02/15 01:39:41;;;;;;;19.92;11.10;;;;;;;2.95;61.71;100675.47;6190614;23;20039;-88
2023/02/15 01:42:12;;;;;;;19.30;11.02;;;;;;;3.07;61.38;100689.09;6189825;23;20000;-88
2023/02/15 01:44:56;;;;;;;16.92;9.95;;;;;;;2.96;61.57;100682.41;6215488;23;20382;-88
2023/02/15 01:47:45;;;;;;;17.55;10.15;;;;;;;3.04;61.52;100700.94;6191442;23;20431;-88
2023/02/15 01:50:13;;;;;;;18.33;9.80;;;;;;;3.01;61.36;100702.13;6216071;23;20076;-88
2023/02/15 01:52:42;;;;;;;18.23;10.38;;;;;;;2.78;62.22;100667.69;6217422;23;20088;-88
2023/02/15 01:55:08;;;;;;;20.65;10.18;;;;;;;2.90;61.78;100699.13;6191073;23;20016;-88
2023/02/15 01:57:34;;;;;;;17.45;9.55;;;;;;;2.82;61.90;100681.41;6189547;23;19997;-88
2023/02/15 02:00:00;;;;;;;17.30;9.63;;;;;;;2.86;62.17;100690.69;6190078;23;20012;-88
2023/02/15 02:02:27;;;;;;;17.30;9.57;;;;;;;2.83;61.53;100683.09;6190913;23;20024;-88
2023/02/15 02:04:59;;;;;;;14.63;9.00;;;;;;;2.79;61.62;100679.13;6191859;23;20083;-88
2023/02/15 02:07:27;;;;;;;18.17;10.48;;;;;;;2.94;61.66;100687.09;6166617;23;19997;-88
2023/02/15 02:09:52;;;;;;;15.05;9.07;;;;;;;2.80;61.84;100659.50;6166043;23;20003;-88
2023/02/15 02:12:18;;;;;;;19.35;10.80;;;;;;;2.78;61.54;100656.19;6165780;23;20004;-88
2023/02/15 02:14:43;;;;;;;18.60;10.23;;;;;;;2.88;61.62;100688.66;6165108;23;20079;-88
2023/02/15 02:17:40;;;;;;;18.02;10.45;;;;;;;2.80;62.04;100699.41;6189027;23;20000;-88
2023/02/15 02:20:05;;;;;;;16.25;9.77;;;;;;;2.72;62.70;100704.81;6216841;23;20342;-87
2023/02/15 02:23:01;;;;;;;16.33;9.90;;;;;;;2.74;62.90;100705.44;6214216;23;20023;-88
2023/02/15 02:25:58;;;;;;;15.55;9.75;;;;;;;2.78;62.33;100707.56;6213964;23;20005;-88
2023/02/15 02:28:32;;;;;;;18.33;11.15;;;;;;;2.79;62.14;100708.41;6214027;23;20391;-87
2023/02/15 02:31:19;;;;;;;16.52;9.68;;;;;;;2.74;62.94;100710.78;6189191;23;20000;-87
2023/02/15 02:33:50;;;;;;;19.75;10.60;;;;;;;2.74;62.78;100710.78;6215908;23;19996;-87
2023/02/15 02:36:38;;;;;;;18.90;10.33;;;;;;;2.66;62.94;100698.41;6216810;23;20423;-88
2023/02/15 02:39:21;;;;;;;21.00;12.00;;;;;;;2.67;62.83;100718.66;6193628;23;20086;-87
2023/02/15 02:42:01;;;;;;;20.75;11.52;;;;;;;2.40;63.28;100696.19;6192865;23;20095;-87
2023/02/15 02:44:45;;;;;;;23.50;11.35;;;;;;;2.50;63.21;100711.88;6215143;23;20055;-88
2023/02/15 02:47:16;;;;;;;21.42;12.00;;;;;;;2.55;63.59;100725.44;6192254;23;19997;-88
2023/02/15 02:49:42;;;;;;;21.08;11.55;;;;;;;2.37;63.65;100709.84;6189281;23;20004;-88
2023/02/15 02:52:39;;;;;;;19.70;10.18;;;;;;;2.46;63.56;100721.22;6164049;23;20091;-89
2023/02/15 02:55:29;;;;;;;19.00;11.00;;;;;;;2.45;63.57;100732.84;6214698;23;20024;-88
2023/02/15 02:58:10;;;;;;;17.40;10.02;;;;;;;2.42;63.47;100734.88;6168953;23;20004;-89
2023/02/15 03:00:46;;;;;;;17.45;9.95;;;;;;;2.23;63.83;100716.78;6214516;23;20009;-88
2023/02/15 03:03:29;;;;;;;20.08;10.82;;;;;;;2.20;63.84;100719.78;6189211;23;20427;-88
2023/02/15 03:06:00;;;;;;;21.25;10.43;;;;;;;2.08;64.80;100707.97;6191602;23;20383;-88
2023/02/15 03:08:27;;;;;;;20.48;10.45;;;;;;;2.08;63.84;100714.09;6215179;23;20032;-88
2023/02/15 03:10:54;;;;;;;17.80;10.52;;;;;;;2.23;63.97;100746.03;6215025;23;20027;-89
2023/02/15 03:13:19;;;;;;;21.23;11.65;;;;;;;2.14;64.03;100732.00;6189325;23;20011;-88
2023/02/15 03:18:52;;;;;;;22.58;10.00;;;;;;;2.00;64.53;100727.47;6089920;23;20004;-89
2023/02/15 03:21:21;;;;;;;17.02;10.40;;;;;;;1.96;65.19;100732.28;6156132;23;20347;-88
2023/02/15 03:24:00;;;;;;;21.48;10.13;;;;;;;2.16;64.53;100753.06;6165609;23;20095;-88
2023/02/15 03:26:25;;;;;;;17.58;10.50;;;;;;;2.04;64.71;100747.34;6166729;23;20454;-88
2023/02/15 03:28:51;;;;;;;17.90;10.65;;;;;;;1.90;64.99;100732.19;6191886;23;20000;-88
2023/02/15 03:31:17;;;;;;;20.95;11.15;;;;;;;1.99;65.21;100761.16;6166684;23;20020;-89
2023/02/15 03:33:47;;;;;;;23.45;11.43;;;;;;;1.82;64.93;100735.72;6166770;23;19997;-89
2023/02/15 03:36:25;;;;;;;20.83;11.18;;;;;;;1.81;65.10;100737.56;6191952;23;19996;-89
2023/02/15 03:39:19;;;;;;;19.98;11.05;;;;;;;1.78;66.08;100742.38;6192790;23;20067;-88
2023/02/15 03:42:03;;;;;;;25.13;10.82;;;;;;;1.90;66.35;100764.06;6193352;23;20007;-88
2023/02/15 03:44:33;;;;;;;20.20;11.38;;;;;;;1.77;65.62;100759.34;6216769;23;20008;-88
2023/02/15 03:47:20;;;;;;;21.35;10.52;;;;;;;1.79;65.76;100760.81;6191770;23;19997;-88
2023/02/15 03:50:02;;;;;;;19.17;10.45;;;;;;;1.76;66.54;100763.81;6166256;23;20004;-88
2023/02/15 03:52:28;;;;;;;19.10;10.18;;;;;;;1.60;65.91;100742.69;6191613;23;20386;-88
2023/02/15 03:54:54;;;;;;;22.05;11.35;;;;;;;1.68;66.60;100768.34;6190630;23;20027;-87
2023/02/15 04:03:15;;;;;;;18.27;11.10;;;;;;;1.70;66.82;100791.09;6197080;23;20011;-87
2023/02/15 04:05:41;;;;;;;24.67;10.93;;;;;;;1.51;66.44;100768.44;6217643;23;20342;-87
2023/02/15 04:08:07;;;;;;;16.88;10.10;;;;;;;1.59;66.71;100778.19;6166352;23;20004;-87
2023/02/15 04:13:16;;;;;;;18.30;9.93;;;;;;;1.56;66.30;100783.88;6195715;23;20012;-87
2023/02/15 04:26:38;;;;;;;20.27;11.18;;;;;;;1.65;66.22;100812.00;6216482;23;20086;-88
2023/02/15 04:29:03;;;;;;;19.17;11.13;;;;;;;1.52;67.35;100790.53;6190396;23;19997;-88
2023/02/15 04:31:29;;;;;;;22.38;12.18;;;;;;;1.57;66.48;100790.81;6190498;23;19996;-88
2023/02/15 04:33:54;;;;;;;23.13;13.18;;;;;;;1.38;66.71;100776.16;6215059;23;19997;-88
2023/02/15 04:36:19;;;;;;;21.55;12.30;;;;;;;1.48;66.80;100794.53;6166505;23;20008;-90
2023/02/15 04:38:45;;;;;;;22.77;13.05;;;;;;;1.55;66.66;100809.56;6166871;23;20012;-90
2023/02/15 04:41:12;;;;;;;24.35;12.50;;;;;;;1.51;66.61;100802.13;6192041;23;20386;-90
2023/02/15 04:43:38;;;;;;;26.98;14.60;;;;;;;1.41;66.91;100786.41;6166473;23;20403;-90
2023/02/15 04:46:04;;;;;;;25.20;15.10;;;;;;;1.38;67.08;100779.63;6166512;23;20000;-89
2023/02/15 04:48:29;;;;;;;27.60;15.15;;;;;;;1.56;67.10;100803.25;6166384;23;19997;-89
2023/02/15 04:50:55;;;;;;;25.92;13.05;;;;;;;1.52;66.56;100795.81;6190923;23;20000;-90
2023/02/15 04:53:20;;;;;;;20.65;11.88;;;;;;;1.59;66.91;100813.53;6190892;23;20455;-90
2023/02/15 04:55:45;;;;;;;25.10;13.38;;;;;;;1.65;65.95;100797.91;6191258;23;19996;-90
2023/02/15 04:58:11;;;;;;;26.50;14.07;;;;;;;1.63;66.04;100797.25;6191826;23;20015;-90
2023/02/15 05:00:36;;;;;;;20.55;13.20;;;;;;;1.45;66.80;100819.56;6165974;23;20012;-90
2023/02/15 05:03:02;;;;;;;26.38;13.55;;;;;;;1.48;67.14;100808.59;6165579;23;20000;-90
2023/02/15 05:05:27;;;;;;;24.17;13.80;;;;;;;1.40;67.00;100816.59;6191147;23;19996;-90
2023/02/15 05:07:53;;;;;;;22.17;13.07;;;;;;;1.37;66.62;100804.53;6166300;23;20032;-90
2023/02/15 05:10:19;;;;;;;26.90;13.95;;;;;;;1.35;67.22;100805.66;6165270;23;20027;-88
2023/02/15 05:12:44;;;;;;;28.25;14.60;;;;;;;1.42;67.25;100831.34;6190529;23;19996;-89
2023/02/15 05:15:10;;;;;;;28.48;14.07;;;;;;;1.39;67.01;100823.75;6215843;23;20001;-88
2023/02/15 05:17:35;;;;;;;25.48;13.30;;;;;;;1.47;66.65;100830.00;6191705;23;19996;-88
2023/02/15 05:20:01;;;;;;;25.25;13.82;;;;;;;1.44;66.90;100835.69;6214957;23;20439;-88
2023/02/15 05:22:26;;;;;;;35.45;15.15;;;;;;;1.51;67.26;100837.44;6166119;23;20494;-88
2023/02/15 05:30:20;;;;;;;26.55;14.82;;;;;;;1.67;66.05;100846.34;6195074;23;20007;-89
2023/02/15 05:32:46;;;;;;;27.48;14.38;;;;;;;1.67;66.02;100841.88;6191404;23;20427;-88
2023/02/15 05:35:15;;;;;;;27.75;15.15;;;;;;;1.86;66.98;100868.97;6190805;23;20012;-87
2023/02/15 05:37:40;;;;;;;29.33;15.70;;;;;;;1.68;66.26;100846.19;6215579;23;20458;-87
2023/02/15 05:40:06;;;;;;;27.48;14.70;;;;;;;1.72;66.38;100863.44;6165592;23;20004;-89
2023/02/15 05:42:32;;;;;;;25.55;14.45;;;;;;;1.62;66.69;100849.53;6166935;23;20005;-88
2023/02/15 05:44:57;;;;;;;28.25;16.73;;;;;;;1.75;66.37;100857.75;6190983;23;20319;-89
2023/02/15 05:47:23;;;;;;;38.70;17.02;;;;;;;1.79;67.12;100874.19;6215290;23;20005;-89
2023/02/15 05:49:48;;;;;;;27.45;15.23;;;;;;;1.88;66.44;100880.25;6217391;23;19993;-87
2023/02/15 05:52:14;;;;;;;28.38;15.13;;;;;;;1.89;66.38;100869.47;6217532;23;20004;-88
2023/02/15 05:54:39;;;;;;;32.08;16.95;;;;;;;1.82;66.48;100863.19;6192870;23;20016;-88
2023/02/15 05:57:04;;;;;;;34.95;17.83;;;;;;;1.91;66.59;100871.94;6192750;23;20000;-87
2023/02/15 05:59:30;;;;;;;30.55;16.33;;;;;;;1.94;67.06;100877.72;6192233;23;20004;-87
2023/02/15 06:01:56;;;;;;;27.40;15.70;;;;;;;1.85;65.91;100876.13;6190719;23;20005;-88
2023/02/15 06:04:21;;;;;;;29.02;15.98;;;;;;;1.85;66.08;100880.59;6165456;23;20031;-87
2023/02/15 06:06:47;;;;;;;31.08;16.33;;;;;;;2.06;66.29;100893.28;6189913;23;20011;-88
2023/02/15 06:09:12;;;;;;;25.67;15.82;;;;;;;1.98;66.61;100868.41;6165337;23;19996;-88
2023/02/15 06:11:44;;;;;;;34.55;17.08;;;;;;;2.18;65.99;100883.91;6190473;23;20075;-88
2023/02/15 06:14:10;;;;;;;35.65;17.33;;;;;;;2.21;65.10;100883.56;6165401;23;20335;-87
2023/02/15 06:16:36;;;;;;;30.02;17.40;;;;;;;2.18;65.88;100881.25;6166801;23;20001;-86
2023/02/15 06:19:17;;;;;;;32.33;17.95;;;;;;;2.14;65.29;100883.44;6219792;23;20071;-87
2023/02/15 06:21:45;;;;;;;33.35;18.73;;;;;;;2.33;65.63;100895.44;6170765;23;19997;-91
2023/02/15 06:24:14;;;;;;;281.77;71.28;;;;;;;2.17;65.44;100866.31;6167973;23;19997;-90
2023/02/15 06:26:39;;;;;;;147.88;36.17;;;;;;;2.20;65.55;100872.09;6168926;23;20000;-92
2023/02/15 06:29:05;;;;;;;39.40;20.33;;;;;;;2.28;65.89;100868.53;6194684;23;20415;-92
2023/02/15 06:31:30;;;;;;;32.42;20.27;;;;;;;2.16;66.34;100865.50;6190415;23;19996;-90
2023/02/15 06:34:01;;;;;;;31.00;18.23;;;;;;;2.24;65.99;100885.84;6164557;23;20124;-91
2023/02/15 06:36:42;;;;;;;31.27;18.52;;;;;;;2.58;65.04;100913.88;6191197;23;20135;-90
2023/02/15 06:39:22;;;;;;;33.38;19.05;;;;;;;2.36;65.88;100889.75;6199240;23;20005;-96
2023/02/15 06:41:57;;;;;;;34.88;17.40;;;;;;;2.55;64.46;100875.19;6207825;23;20000;-96
2023/02/15 06:44:23;;;;;;;28.75;17.50;;;;;;;2.76;64.22;100892.25;6176456;23;20001;-94
2023/02/15 06:46:49;;;;;;;32.78;17.08;;;;;;;2.98;64.17;100903.88;6191806;23;20101;-94
2023/02/15 06:49:17;;;;;;;30.25;16.65;;;;;;;3.31;63.57;100911.53;6179653;23;20008;-93
2023/02/15 06:51:43;;;;;;;36.33;20.08;;;;;;;3.44;62.86;100880.63;6201769;22;20443;-94
2023/02/15 06:54:08;;;;;;;24.77;15.15;;;;;;;3.61;62.22;100880.41;6197776;23;20000;-92
2023/02/15 06:57:02;;;;;;;30.65;15.40;;;;;;;4.00;60.76;100906.69;6201041;23;20001;-93
2023/02/15 06:59:35;;;;;;;25.58;14.60;;;;;;;3.98;60.13;100874.09;6213665;23;20000;-94
2023/02/15 07:02:04;;;;;;;27.45;14.40;;;;;;;3.99;60.19;100873.09;6216594;22;20549;-94
2023/02/15 07:07:19;;;;;;;23.65;13.18;;;;;;;4.55;58.96;100895.59;6254202;22;20012;-95
2023/02/15 07:09:50;;;;;;;32.15;15.45;;;;;;;4.35;58.76;100869.56;6210898;23;19981;-95
2023/02/15 07:15:01;;;;;;;25.02;13.70;;;;;;;4.60;57.83;100864.66;6243382;23;20022;-94
2023/02/15 07:21:37;;;;;;;26.10;15.30;;;;;;;4.69;57.65;100901.84;6203210;23;20101;-94
2023/02/15 07:24:45;;;;;;;;;;;;;;;;;;;;;
2023/02/15 07:27:17;;;;;;;28.20;14.38;;;;;;;4.50;58.59;100866.81;6170673;23;20036;-96
2023/02/15 07:29:45;;;;;;;34.97;19.40;;;;;;;4.59;58.32;100863.00;6165606;23;20005;-93
2023/02/15 07:32:11;;;;;;;27.58;15.48;;;;;;;4.92;56.83;100870.47;6139009;23;20005;-93
2023/02/15 07:34:37;;;;;;;28.67;15.38;;;;;;;4.96;57.02;100871.72;6141785;23;20060;-94
2023/02/15 07:37:05;;;;;;;25.17;14.60;;;;;;;5.23;56.41;100885.25;6155353;23;20005;-91
2023/02/15 07:39:30;;;;;;;30.45;18.70;;;;;;;5.11;59.09;100878.81;6138256;23;20005;-91
2023/02/15 07:41:56;;;;;;;26.63;15.30;;;;;;;5.21;57.24;100881.94;6134323;23;20507;-89
2023/02/15 07:44:22;;;;;;;25.27;14.68;;;;;;;5.40;56.69;100888.44;6159793;23;20355;-89
2023/02/15 07:46:48;;;;;;;33.40;17.02;;;;;;;5.40;56.38;100867.88;6182905;23;20001;-91
2023/02/15 07:49:17;;;;;;;26.83;15.82;;;;;;;5.44;55.27;100857.63;6212121;23;20003;-93
2023/02/15 07:51:43;;;;;;;23.52;14.48;;;;;;;5.49;56.30;100863.19;6200439;23;20018;-90
2023/02/15 07:54:08;;;;;;;29.40;14.27;;;;;;;5.46;56.23;100880.44;6206118;23;19996;-93
2023/02/15 07:56:34;;;;;;;24.02;14.50;;;;;;;5.56;56.40;100890.78;6180434;23;20008;-95
2023/02/15 07:59:02;;;;;;;23.63;13.88;;;;;;;5.52;56.18;100868.16;6207261;23;19996;-93
2023/02/15 08:04:55;;;;;;;19.65;11.00;;;;;;;5.41;55.72;100850.00;6214542;23;20004;-95
2023/02/15 08:07:25;;;;;;;17.92;9.88;;;;;;;5.66;55.44;100882.38;6209905;23;20026;-96
2023/02/15 08:09:52;;;;;;;18.15;10.20;;;;;;;5.53;55.38;100850.28;6232586;23;20506;-96
2023/02/15 08:12:28;;;;;;;18.63;10.57;;;;;;;5.72;55.25;100862.06;6177156;23;20007;-95
2023/02/15 08:15:14;;;;;;;17.52;8.95;;;;;;;5.54;55.17;100870.59;6214266;23;20004;-92
2023/02/15 08:17:43;;;;;;;22.65;11.73;;;;;;;5.69;56.80;100867.81;6199700;23;20000;-95
2023/02/15 08:20:37;;;;;;;17.30;11.02;;;;;;;5.62;55.20;100844.56;6234868;23;20004;-95
2023/02/15 08:23:16;;;;;;;16.45;9.70;;;;;;;5.73;55.67;100855.69;6262753;22;20018;-96
2023/02/15 08:25:49;;;;;;;15.15;8.90;;;;;;;5.83;54.65;100845.44;6243430;23;20028;-96
2023/02/15 08:28:16;;;;;;;20.10;9.25;;;;;;;5.68;55.37;100848.28;6186012;23;20056;-92
2023/02/15 08:30:54;;;;;;;19.20;9.50;;;;;;;5.97;55.03;100881.91;6236143;23;20004;-96
2023/02/15 08:33:22;;;;;;;14.00;8.25;;;;;;;6.00;53.94;100849.44;6207793;23;20031;-95
2023/02/15 08:35:47;;;;;;;14.70;8.02;;;;;;;6.00;53.09;100853.97;6181814;23;20000;-94
2023/02/15 08:38:39;;;;;;;14.00;7.80;;;;;;;6.03;53.27;100837.50;6184147;23;20004;-95
2023/02/15 08:41:25;;;;;;;20.85;8.80;;;;;;;6.08;52.62;100867.16;6213736;23;20027;-96
2023/02/15 08:43:59;;;;;;;15.90;8.35;;;;;;;5.96;52.74;100858.06;6185704;22;20000;-96
2023/02/15 08:46:31;;;;;;;14.63;8.05;;;;;;;6.00;53.16;100845.97;6256476;23;20066;-92
2023/02/15 08:48:58;;;;;;;18.60;10.55;;;;;;;5.98;53.59;100850.69;6264151;23;19988;-94
2023/02/15 08:51:27;;;;;;;14.30;8.98;;;;;;;6.11;53.00;100860.56;6185467;23;20151;-94
2023/02/15 08:53:59;;;;;;;15.02;8.77;;;;;;;6.26;53.60;100872.72;6187272;23;20469;-93
2023/02/15 08:56:57;;;;;;;13.70;7.95;;;;;;;6.26;52.87;100845.97;6240903;23;20005;-94
2023/02/15 08:59:27;;;;;;;13.35;7.75;;;;;;;6.26;52.45;100843.31;6195592;22;20023;-95
2023/02/15 09:02:08;;;;;;;13.18;7.53;;;;;;;6.46;53.39;100862.06;6211332;23;20422;-96
2023/02/15 09:04:34;;;;;;;14.40;7.90;;;;;;;6.38;51.80;100848.88;6256251;23;20440;-93
2023/02/15 09:07:00;;;;;;;16.35;8.18;;;;;;;6.47;51.78;100846.84;6260747;22;20012;-94
2023/02/15 09:12:14;;;;;;;12.57;8.05;;;;;;;6.59;51.18;100850.53;6197428;23;20011;-94
2023/02/15 09:15:37;;;;;;;;;;;;;;;;;;;;;
2023/02/15 09:18:05;;;;;;;12.40;7.45;;;;;;;6.81;51.51;100864.56;6239439;23;20056;-88
2023/02/15 09:20:32;;;;;;;18.50;8.63;;;;;;;6.76;51.23;100861.66;6196250;23;19996;-89
2023/02/15 09:22:57;;;;;;;15.45;7.78;;;;;;;6.85;51.70;100865.78;6248001;23;20443;-90
2023/02/15 09:25:46;;;;;;;14.45;7.50;;;;;;;6.90;50.99;100881.22;6222596;23;19996;-88
2023/02/15 09:28:12;;;;;;;14.55;8.25;;;;;;;6.64;52.10;100852.59;6124920;23;20009;-88
2023/02/15 09:30:37;;;;;;;13.45;7.63;;;;;;;6.73;51.89;100850.56;6108146;23;20008;-89
2023/02/15 09:33:03;;;;;;;15.68;7.50;;;;;;;6.90;52.09;100865.16;6105898;23;20475;-90
2023/02/15 09:35:31;;;;;;;11.27;6.82;;;;;;;6.94;51.38;100857.53;6130509;23;20012;-87
2023/02/15 09:37:57;;;;;;;13.45;7.68;;;;;;;7.06;50.93;100862.06;6129882;23;20008;-90
2023/02/15 09:40:22;;;;;;;18.15;8.10;;;;;;;7.09;50.97;100858.13;6130835;23;20391;-89
2023/02/15 09:42:59;;;;;;;19.45;7.70;;;;;;;7.36;50.31;100874.16;6128336;23;20012;-88
2023/02/15 09:46:02;;;;;;;15.27;8.07;;;;;;;7.36;50.24;100874.16;6106714;23;20013;-87
2023/02/15 09:48:38;;;;;;;14.40;8.45;;;;;;;7.50;49.49;100854.31;6095062;23;20093;-87
2023/02/15 09:51:18;;;;;;;11.60;6.43;;;;;;;7.51;49.77;100839.06;6097170;23;20002;-88
2023/02/15 09:53:54;;;;;;;10.88;7.10;;;;;;;7.68;49.40;100849.09;6072945;23;20057;-88
2023/02/15 09:56:38;;;;;;;13.32;7.28;;;;;;;7.79;49.07;100836.06;6077318;23;20009;-88
2023/02/15 09:59:14;;;;;;;31.35;13.80;;;;;;;7.76;49.30;100841.84;6118340;23;20333;-89
2023/02/15 10:01:53;;;;;;;18.10;9.73;;;;;;;7.81;49.35;100817.91;6185157;23;20008;-89
2023/02/15 10:04:56;;;;;;;24.52;11.50;;;;;;;7.93;48.57;100836.81;6161666;23;20075;-88
2023/02/15 10:07:41;;;;;;;11.27;7.18;;;;;;;7.92;47.73;100803.00;6183802;23;20016;-89
2023/02/15 10:10:09;;;;;;;15.82;8.48;;;;;;;8.17;48.14;100829.84;6160766;23;20496;-88
2023/02/15 10:12:51;;;;;;;12.27;7.93;;;;;;;8.13;48.11;100817.91;6182955;23;20045;-88
2023/02/15 10:22:32;;;;;;;12.35;7.55;;;;;;;8.01;48.13;100821.31;6095267;23;20049;-88
2023/02/15 10:25:14;;;;;;;21.63;12.48;;;;;;;8.02;47.82;100819.44;6123477;23;20479;-88
2023/02/15 10:27:48;;;;;;;13.98;8.65;;;;;;;8.11;48.25;100804.72;6154408;23;20178;-87
2023/02/15 10:30:22;;;;;;;13.20;7.72;;;;;;;8.08;48.30;100803.28;6210161;23;19996;-88
2023/02/15 10:33:02;;;;;;;11.82;7.80;;;;;;;8.14;47.79;100792.75;6220479;23;20402;-88
2023/02/15 10:35:42;;;;;;;24.67;8.85;;;;;;;8.05;48.28;100797.53;6171379;23;20004;-88
2023/02/15 10:38:46;;;;;;;12.20;7.25;;;;;;;8.07;48.33;100785.56;6223614;23;19996;-88
2023/02/15 10:41:48;;;;;;;11.48;7.25;;;;;;;8.12;48.21;100805.56;6199236;23;20000;-89
2023/02/15 10:44:37;;;;;;;12.02;7.60;;;;;;;7.94;48.34;100774.09;6156126;23;20466;-89
2023/02/15 10:47:09;;;;;;;16.35;9.40;;;;;;;8.26;47.68;100807.94;6221389;23;20062;-90
2023/02/15 10:49:47;;;;;;;11.23;7.10;;;;;;;8.38;47.74;100796.47;6247224;23;20389;-88
2023/02/15 10:52:51;;;;;;;12.85;7.38;;;;;;;8.47;47.61;100787.97;6222206;23;20007;-90
2023/02/15 10:55:40;;;;;;;33.58;9.05;;;;;;;8.68;48.26;100786.75;6203709;23;20387;-90
2023/02/15 10:58:18;;;;;;;12.55;7.40;;;;;;;8.84;46.19;100790.75;6246090;23;20078;-89
2023/02/15 11:00:49;;;;;;;15.13;8.60;;;;;;;9.03;46.09;100794.25;6246404;23;20365;-90
2023/02/15 11:03:28;;;;;;;14.93;8.30;;;;;;;9.13;45.64;100791.06;6246085;23;20008;-89
2023/02/15 11:12:58;;;;;;;14.48;7.25;;;;;;;9.38;46.06;100784.75;6276072;22;20453;-89
2023/02/15 11:15:34;;;;;;;13.13;6.90;;;;;;;9.50;44.58;100783.78;6248733;22;20086;-89
2023/02/15 11:18:23;;;;;;;31.58;16.08;;;;;;;9.47;45.09;100783.41;6248518;22;19999;-88
2023/02/15 11:21:13;;;;;;;19.02;9.07;;;;;;;9.43;43.95;100764.22;6248126;22;20003;-88
2023/02/15 11:23:44;;;;;;;11.20;6.68;;;;;;;9.41;43.30;100749.38;6220538;22;20008;-88
2023/02/15 11:26:45;;;;;;;10.80;6.70;;;;;;;9.27;44.24;100740.66;6219749;22;20022;-88
2023/02/15 11:29:26;;;;;;;13.05;7.70;;;;;;;9.29;45.07;100765.44;6095614;23;20081;-87
2023/02/15 11:31:58;;;;;;;11.82;8.15;;;;;;;8.98;46.13;100739.53;6206793;22;20003;-89
2023/02/15 11:34:31;;;;;;;12.15;7.68;;;;;;;8.98;45.25;100728.81;6245833;22;20086;-88
2023/02/15 11:37:07;;;;;;;11.18;7.50;;;;;;;9.00;44.62;100722.16;6223752;22;20053;-90
2023/02/15 11:39:34;;;;;;;12.77;6.68;;;;;;;9.03;45.26;100732.47;6221839;22;20030;-90
2023/02/15 11:42:01;;;;;;;13.40;6.93;;;;;;;8.99;44.19;100738.50;6247116;22;20003;-91
2023/02/15 11:44:32;;;;;;;15.20;9.75;;;;;;;9.03;45.15;100761.19;6198505;22;20035;-91
2023/02/15 11:47:01;;;;;;;12.52;6.75;;;;;;;8.82;45.21;100740.94;6226291;22;19999;-90
2023/02/15 11:49:45;;;;;;;14.52;9.57;;;;;;;8.87;45.53;100741.13;6228475;22;20436;-91
2023/02/15 11:53:03;;;;;;;14.05;7.97;;;;;;;8.97;45.31;100756.72;6228257;22;20397;-91
2023/02/15 11:55:31;;;;;;;14.68;7.13;;;;;;;8.94;45.63;100757.97;6282004;22;20006;-91
2023/02/15 11:58:44;;;;;;;12.00;6.65;;;;;;;8.92;45.48;100725.13;6229284;22;20003;-90
2023/02/15 12:01:12;;;;;;;12.85;7.40;;;;;;;8.68;45.60;100718.81;6232635;22;20031;-91
2023/02/15 12:04:12;;;;;;;10.77;6.80;;;;;;;8.65;45.79;100721.91;6280140;22;20019;-90
2023/02/15 12:07:07;;;;;;;13.48;7.22;;;;;;;8.72;46.21;100732.63;6173308;22;20027;-92
2023/02/15 12:10:16;;;;;;;12.05;7.50;;;;;;;8.83;45.39;100726.50;6245266;22;20000;-92
2023/02/15 12:12:42;;;;;;;11.10;6.05;;;;;;;8.73;45.04;100724.31;6230631;22;20004;-90
2023/02/15 12:15:09;;;;;;;20.95;7.32;;;;;;;8.70;45.14;100730.16;6201823;22;20006;-89
2023/02/15 12:17:54;;;;;;;12.80;6.93;;;;;;;8.52;45.68;100712.13;6226418;22;20069;-91
2023/02/15 12:20:20;;;;;;;15.50;7.30;;;;;;;8.72;45.14;100737.97;6251627;22;20007;-90
2023/02/15 12:22:50;;;;;;;12.00;7.28;;;;;;;8.60;45.66;100711.03;6251345;22;20014;-91
2023/02/15 12:25:25;;;;;;;10.93;7.20;;;;;;;8.70;45.31;100724.78;6252416;22;20011;-91
2023/02/15 12:27:52;;;;;;;13.45;7.00;;;;;;;8.65;45.08;100711.19;6225217;22;20004;-88
2023/02/15 12:30:23;;;;;;;12.95;7.70;;;;;;;8.80;44.92;100729.59;6251380;22;19988;-88
2023/02/15 12:32:53;;;;;;;21.65;8.95;;;;;;;8.60;45.07;100695.75;6277374;22;20003;-89
2023/02/15 12:35:31;;;;;;;15.48;8.32;;;;;;;8.75;45.47;100705.31;6251497;22;20000;-89
2023/02/15 12:38:16;;;;;;;19.48;9.07;;;;;;;8.77;45.38;100701.34;6226662;22;19995;-89
2023/02/15 12:40:42;;;;;;;16.08;8.60;;;;;;;8.76;44.71;100704.25;6249440;22;20006;-89
2023/02/15 12:43:31;;;;;;;12.25;7.28;;;;;;;9.00;43.61;100714.09;6225029;22;20354;-87